Sorrento, Louisiana
Current Conditions -  °F | °C
As of 1:55 PM on Saturday 20 Dec 2014 (Local Time) from KL38 Reporting Station
Overcast Overcast  
Wind Chill: 50°   Ceiling: 700
Heat Index: 50°   Visibility: 10mi
Dew Point: 50°   Wind: 5mph
Humidity: 99%   Direction: 10°N
Pressure: 30.12"   Gusts: NA
Location:  30.18°N, 90.86°W
Report Text: KL38 201955Z AUTO 01004KT 10SM OVC007 10/10 A3012 RMK AO2 T01020101
Loading
Personal Weather Stations






























Interactive Weather Map New forecast layout! Learn more

10-Day Weather Forecast

Advertisements
Track Severe Weather on mobile